Time,TemperatureF,DewpointF,PressureIn,WindDirection,WindDirectionDegrees,WindSpeedMPH,WindSpeedGustMPH,Humidity,HourlyPrecipIn,Conditions,Clouds,dailyrainin,SoftwareType,DateUTC
2013-06-05 00:14:00,75.0,74.0,29.93,South,188,0.0,2.0,95,0.00,,,0.01,weatherlink.com 1.10,2013-06-05 05:14:00,
2013-06-05 00:29:00,74.9,73.0,29.93,SSE,162,0.0,1.0,95,0.00,,,0.00,weatherlink.com 1.10,2013-06-05 05:29:00,
2013-06-05 00:44:00,74.6,73.0,29.93,SSE,162,0.0,0.0,95,0.00,,,0.00,weatherlink.com 1.10,2013-06-05 05:44:00,
2013-06-05 00:59:00,74.3,73.0,29.93,SSE,162,0.0,1.0,95,0.00,,,0.00,weatherlink.com 1.10,2013-06-05 05:59:00,
2013-06-05 01:14:00,74.1,73.0,29.92,ENE,67,0.0,0.0,96,0.00,,,0.00,weatherlink.com 1.10,2013-06-05 06:14:00,
2013-06-05 01:29:00,74.0,73.0,29.92,ENE,68,0.0,1.0,96,0.00,,,0.00,weatherlink.com 1.10,2013-06-05 06:29:00,
2013-06-05 01:44:00,74.0,73.0,29.91,ENE,68,0.0,0.0,96,0.00,,,0.00,weatherlink.com 1.10,2013-06-05 06:44:00,
2013-06-05 01:59:00,73.7,73.0,29.90,ENE,68,0.0,0.0,96,0.00,,,0.00,weatherlink.com 1.10,2013-06-05 06:59:00,
2013-06-05 02:14:00,73.6,73.0,29.90,ENE,68,0.0,0.0,97,0.00,,,0.00,weatherlink.com 1.10,2013-06-05 07:14:00,
2013-06-05 02:29:00,73.6,73.0,29.89,SE,131,0.0,1.0,97,0.00,,,0.00,weatherlink.com 1.10,2013-06-05 07:29:00,
2013-06-05 02:44:00,73.6,73.0,29.90,SSE,163,0.0,1.0,97,0.00,,,0.00,weatherlink.com 1.10,2013-06-05 07:44:00,
2013-06-05 02:59:00,73.6,73.0,29.90,SSE,164,0.0,1.0,97,0.00,,,0.00,weatherlink.com 1.10,2013-06-05 07:59:00,
2013-06-05 03:14:00,73.6,73.0,29.90,SSE,164,0.0,0.0,97,0.00,,,0.00,weatherlink.com 1.10,2013-06-05 08:14:00,
2013-06-05 03:29:00,73.6,73.0,29.91,SSE,160,0.0,0.0,97,0.00,,,0.00,weatherlink.com 1.10,2013-06-05 08:29:00,
2013-06-05 03:44:00,73.4,73.0,29.91,SSE,160,0.0,0.0,97,0.00,,,0.00,weatherlink.com 1.10,2013-06-05 08:44:00,
2013-06-05 03:59:00,73.4,73.0,29.91,SSE,160,0.0,0.0,97,0.00,,,0.00,weatherlink.com 1.10,2013-06-05 08:59:00,
2013-06-05 04:14:00,73.2,72.0,29.91,SSE,160,0.0,0.0,97,0.00,,,0.00,weatherlink.com 1.10,2013-06-05 09:14:00,
2013-06-05 04:29:00,72.9,72.0,29.91,SSE,160,0.0,0.0,97,0.00,,,0.00,weatherlink.com 1.10,2013-06-05 09:29:00,
2013-06-05 04:44:00,73.0,72.0,29.91,SSE,160,0.0,1.0,97,0.00,,,0.00,weatherlink.com 1.10,2013-06-05 09:44:00,
2013-06-05 04:59:00,72.9,72.0,29.91,East,94,0.0,1.0,97,0.00,,,0.00,weatherlink.com 1.10,2013-06-05 09:59:00,
2013-06-05 05:14:00,72.8,72.0,29.91,East,93,0.0,0.0,98,0.00,,,0.00,weatherlink.com 1.10,2013-06-05 10:14:00,
2013-06-05 05:29:00,72.8,72.0,29.91,East,94,0.0,0.0,98,0.00,,,0.00,weatherlink.com 1.10,2013-06-05 10:29:00,
2013-06-05 05:44:00,72.8,72.0,29.92,East,93,0.0,0.0,98,0.00,,,0.00,weatherlink.com 1.10,2013-06-05 10:44:00,
2013-06-05 05:59:00,72.5,72.0,29.92,East,94,0.0,0.0,98,0.00,,,0.00,weatherlink.com 1.10,2013-06-05 10:59:00,
2013-06-05 06:14:00,72.5,72.0,29.92,East,93,0.0,0.0,98,0.00,,,0.00,weatherlink.com 1.10,2013-06-05 11:14:00,
2013-06-05 06:29:00,72.6,72.0,29.92,East,94,0.0,0.0,98,0.00,,,0.00,weatherlink.com 1.10,2013-06-05 11:29:00,
2013-06-05 06:44:00,73.1,73.0,29.92,East,93,1.0,1.0,98,0.00,,,0.00,weatherlink.com 1.10,2013-06-05 11:44:00,
2013-06-05 06:59:00,73.7,73.0,29.93,East,94,0.0,1.0,98,0.00,,,0.00,weatherlink.com 1.10,2013-06-05 11:59:00,
2013-06-05 07:14:00,74.4,74.0,29.93,East,93,0.0,1.0,98,0.00,,,0.00,weatherlink.com 1.10,2013-06-05 12:14:00,
2013-06-05 07:29:00,74.9,74.0,29.93,ENE,74,1.0,2.0,98,0.00,,,0.00,weatherlink.com 1.10,2013-06-05 12:29:00,
2013-06-05 07:44:00,75.7,75.0,29.93,ENE,77,1.0,1.0,98,0.00,,,0.00,weatherlink.com 1.10,2013-06-05 12:44:00,
2013-06-05 07:59:00,76.5,75.0,29.93,East,98,0.0,3.0,96,0.00,,,0.00,weatherlink.com 1.10,2013-06-05 12:59:00,
2013-06-05 08:14:00,77.1,76.0,29.93,ENE,60,0.0,1.0,95,0.00,,,0.00,weatherlink.com 1.10,2013-06-05 13:14:00,
2013-06-05 08:29:00,77.7,76.0,29.93,ESE,102,0.0,1.0,94,0.02,,,0.02,weatherlink.com 1.10,2013-06-05 13:29:00,
2013-06-05 08:44:00,77.5,76.0,29.93,SW,214,0.0,1.0,94,0.07,,,0.07,weatherlink.com 1.10,2013-06-05 13:44:00,
2013-06-05 08:59:00,77.3,76.0,29.93,SE,146,0.0,1.0,95,0.08,,,0.08,weatherlink.com 1.10,2013-06-05 13:59:00,
2013-06-05 09:14:00,77.2,75.0,29.93,SW,222,0.0,1.0,94,0.08,,,0.08,weatherlink.com 1.10,2013-06-05 14:14:00,
2013-06-05 09:29:00,77.0,75.0,29.93,East,82,0.0,2.0,94,0.06,,,0.08,weatherlink.com 1.10,2013-06-05 14:29:00,
2013-06-05 09:44:00,77.6,76.0,29.93,SSW,194,0.0,2.0,95,0.03,,,0.10,weatherlink.com 1.10,2013-06-05 14:44:00,
2013-06-05 09:59:00,77.3,76.0,29.93,East,82,0.0,2.0,94,0.04,,,0.12,weatherlink.com 1.10,2013-06-05 14:59:00,
2013-06-05 10:15:00,79.1,77.0,29.93,SSW,194,0.0,3.0,94,0.05,,,0.13,weatherlink.com 1.10,2013-06-05 15:15:00,
2013-06-05 10:30:00,81.0,78.0,29.93,SW,225,0.0,3.0,90,0.05,,,0.13,weatherlink.com 1.10,2013-06-05 15:30:00,
2013-06-05 10:45:00,82.3,78.0,29.93,SE,127,2.0,2.0,86,0.03,,,0.13,weatherlink.com 1.10,2013-06-05 15:45:00,
2013-06-05 11:00:00,83.4,78.0,29.93,SSE,156,0.0,2.0,83,0.01,,,0.13,weatherlink.com 1.10,2013-06-05 16:00:00,
2013-06-05 11:15:00,83.2,78.0,29.93,South,181,0.0,1.0,83,0.00,,,0.13,weatherlink.com 1.10,2013-06-05 16:15:00,
2013-06-05 11:30:00,82.6,77.0,29.93,NNE,33,0.0,2.0,82,0.06,,,0.19,weatherlink.com 1.10,2013-06-05 16:30:00,
2013-06-05 11:45:00,80.7,78.0,29.93,NNE,29,0.0,1.0,91,0.15,,,0.28,weatherlink.com 1.10,2013-06-05 16:45:00,
2013-06-05 12:00:00,81.0,79.0,29.93,SSE,158,0.0,1.0,93,0.15,,,0.28,weatherlink.com 1.10,2013-06-05 17:00:00,
2013-06-05 12:15:00,83.7,79.0,29.93,East,96,3.0,3.0,85,0.15,,,0.28,weatherlink.com 1.10,2013-06-05 17:15:00,
2013-06-05 12:30:00,84.4,78.0,29.93,WSW,238,0.0,6.0,81,0.08,,,0.28,weatherlink.com 1.10,2013-06-05 17:30:00,
2013-06-05 12:45:00,85.7,77.0,29.92,East,79,1.0,2.0,76,0.00,,,0.28,weatherlink.com 1.10,2013-06-05 17:45:00,
2013-06-05 13:00:00,87.0,78.0,29.91,SSE,162,4.0,6.0,75,0.00,,,0.28,weatherlink.com 1.10,2013-06-05 18:00:00,
2013-06-05 13:15:00,88.4,78.0,29.90,SE,137,1.0,4.0,71,0.00,,,0.28,weatherlink.com 1.10,2013-06-05 18:15:00,
2013-06-05 13:30:00,88.9,77.0,29.90,South,170,4.0,6.0,67,0.00,,,0.28,weatherlink.com 1.10,2013-06-05 18:30:00,
2013-06-05 13:45:00,88.8,77.0,29.89,SSE,165,2.0,6.0,68,0.00,,,0.28,weatherlink.com 1.10,2013-06-05 18:45:00,
2013-06-05 14:00:00,87.6,76.0,29.89,ESE,121,2.0,7.0,68,0.00,,,0.28,weatherlink.com 1.10,2013-06-05 19:00:00,
2013-06-05 14:15:00,89.2,77.0,29.88,SSE,165,0.0,4.0,67,0.00,,,0.28,weatherlink.com 1.10,2013-06-05 19:15:00,
2013-06-05 14:30:00,90.0,76.0,29.87,South,190,3.0,7.0,64,0.00,,,0.28,weatherlink.com 1.10,2013-06-05 19:30:00,
2013-06-05 14:45:00,88.8,76.0,29.86,SSW,193,1.0,6.0,65,0.00,,,0.28,weatherlink.com 1.10,2013-06-05 19:45:00,
2013-06-05 15:00:00,88.9,76.0,29.86,NE,40,2.0,6.0,66,0.00,,,0.28,weatherlink.com 1.10,2013-06-05 20:00:00,
2013-06-05 15:15:00,88.9,76.0,29.86,East,97,3.0,4.0,65,0.00,,,0.28,weatherlink.com 1.10,2013-06-05 20:15:00,
2013-06-05 15:30:00,89.1,76.0,29.85,South,191,1.0,8.0,66,0.00,,,0.28,weatherlink.com 1.10,2013-06-05 20:30:00,
2013-06-05 15:45:00,88.4,75.0,29.84,ESE,110,3.0,12.0,65,0.00,,,0.28,weatherlink.com 1.10,2013-06-05 20:45:00,
2013-06-05 16:00:00,88.3,76.0,29.84,ESE,108,1.0,5.0,66,0.00,,,0.28,weatherlink.com 1.10,2013-06-05 21:00:00,
2013-06-05 16:15:00,89.0,76.0,29.84,ESE,113,2.0,9.0,65,0.00,,,0.28,weatherlink.com 1.10,2013-06-05 21:15:00,
2013-06-05 16:45:00,88.6,75.0,29.84,SSE,153,0.0,5.0,64,0.00,,,0.28,weatherlink.com 1.10,2013-06-05 21:45:00,
2013-06-05 17:00:00,88.3,76.0,29.84,East,84,2.0,6.0,67,0.00,,,0.28,weatherlink.com 1.10,2013-06-05 22:00:00,
2013-06-05 17:16:00,86.3,75.0,29.84,SSE,155,0.0,5.0,68,0.00,,,0.28,weatherlink.com 1.10,2013-06-05 22:16:00,
2013-06-05 17:31:00,86.5,75.0,29.84,ESE,109,3.0,6.0,69,0.00,,,0.28,weatherlink.com 1.10,2013-06-05 22:31:00,
2013-06-05 17:46:00,86.7,75.0,29.84,SE,134,2.0,4.0,68,0.00,,,0.28,weatherlink.com 1.10,2013-06-05 22:46:00,
2013-06-05 18:01:00,85.1,76.0,29.83,South,172,2.0,3.0,73,0.00,,,0.28,weatherlink.com 1.10,2013-06-05 23:01:00,
2013-06-05 18:16:00,84.3,75.0,29.85,SE,129,1.0,4.0,73,0.00,,,0.28,weatherlink.com 1.10,2013-06-05 23:16:00,
2013-06-05 18:31:00,83.1,74.0,29.85,South,191,1.0,4.0,75,0.00,,,0.28,weatherlink.com 1.10,2013-06-05 23:31:00,
2013-06-05 18:46:00,83.6,75.0,29.84,SSE,165,3.0,4.0,75,0.00,,,0.28,weatherlink.com 1.10,2013-06-05 23:46:00,
2013-06-05 19:01:00,82.8,74.0,29.84,SSE,150,1.0,4.0,75,0.00,,,0.28,weatherlink.com 1.10,2013-06-06 00:01:00,
2013-06-05 19:16:00,81.3,74.0,29.86,SSE,150,0.0,2.0,78,0.00,,,0.28,weatherlink.com 1.10,2013-06-06 00:16:00,
2013-06-05 19:31:00,80.2,74.0,29.86,South,183,0.0,4.0,80,0.00,,,0.28,weatherlink.com 1.10,2013-06-06 00:31:00,
2013-06-05 19:46:00,79.4,74.0,29.85,SE,141,0.0,3.0,82,0.00,,,0.28,weatherlink.com 1.10,2013-06-06 00:46:00,
2013-06-05 20:01:00,78.6,73.0,29.86,ESE,123,0.0,4.0,84,0.00,,,0.28,weatherlink.com 1.10,2013-06-06 01:01:00,
2013-06-05 20:16:00,78.0,74.0,29.87,South,181,0.0,1.0,86,0.00,,,0.28,weatherlink.com 1.10,2013-06-06 01:16:00,
2013-06-05 20:31:00,77.4,73.0,29.87,ENE,61,0.0,0.0,87,0.00,,,0.28,weatherlink.com 1.10,2013-06-06 01:31:00,
2013-06-05 20:46:00,76.6,73.0,29.88,ENE,61,0.0,0.0,89,0.00,,,0.28,weatherlink.com 1.10,2013-06-06 01:46:00,
2013-06-05 21:01:00,76.0,73.0,29.89,ENE,61,0.0,0.0,91,0.00,,,0.28,weatherlink.com 1.10,2013-06-06 02:01:00,
2013-06-05 21:16:00,75.7,73.0,29.90,ENE,61,0.0,0.0,92,0.00,,,0.28,weatherlink.com 1.10,2013-06-06 02:16:00,
2013-06-05 21:31:00,75.8,73.0,29.90,ENE,61,0.0,0.0,92,0.00,,,0.28,weatherlink.com 1.10,2013-06-06 02:31:00,
2013-06-05 21:46:00,75.8,74.0,29.92,ENE,61,0.0,0.0,93,0.00,,,0.28,weatherlink.com 1.10,2013-06-06 02:46:00,
2013-06-05 22:01:00,75.3,71.0,29.93,ENE,71,4.0,8.0,85,0.04,,,0.32,weatherlink.com 1.10,2013-06-06 03:01:00,
2013-06-05 22:16:00,69.3,67.0,29.93,NE,49,0.0,5.0,91,0.14,,,0.42,weatherlink.com 1.10,2013-06-06 03:16:00,
2013-06-05 22:31:00,67.7,66.0,29.93,NE,55,0.0,9.0,94,0.16,,,0.44,weatherlink.com 1.10,2013-06-06 03:31:00,
2013-06-05 22:46:00,67.4,66.0,29.91,ENE,72,2.0,6.0,95,0.21,,,0.49,weatherlink.com 1.10,2013-06-06 03:46:00,
2013-06-05 23:01:00,67.3,66.0,29.89,NE,47,1.0,4.0,96,0.16,,,0.49,weatherlink.com 1.10,2013-06-06 04:01:00,
2013-06-05 23:16:00,67.2,66.0,29.89,ENE,77,2.0,7.0,96,0.06,,,0.49,weatherlink.com 1.10,2013-06-06 04:16:00,
2013-06-05 23:31:00,67.1,66.0,29.89,East,82,1.0,5.0,97,0.05,,,0.49,weatherlink.com 1.10,2013-06-06 04:31:00,
2013-06-05 23:46:00,67.3,67.0,29.87,ESE,108,3.0,4.0,97,0.00,,,0.49,weatherlink.com 1.10,2013-06-06 04:46:00,